createdAt,value
2023-08-07T00:02:18.801Z,86.89
2023-08-07T00:04:51.489Z,89.41
2023-08-07T00:07:25.465Z,88.77
2023-08-07T00:09:57.766Z,88.56
2023-08-07T00:12:30.199Z,85.88
2023-08-07T00:15:02.937Z,84.74
2023-08-07T00:17:35.136Z,84.33
2023-08-07T00:20:09.127Z,85.41
2023-08-07T00:22:41.543Z,85.15
2023-08-07T00:25:13.834Z,85.86
2023-08-07T00:27:47.037Z,84.98
2023-08-07T00:30:19.855Z,84.48
2023-08-07T00:32:52.197Z,85.88
2023-08-07T00:35:24.489Z,85.37
2023-08-07T00:37:57.078Z,83.45
2023-08-07T00:40:29.202Z,82.59
2023-08-07T00:43:01.688Z,82.47
2023-08-07T00:45:36.458Z,82.69
2023-08-07T00:48:07.512Z,83.29
2023-08-07T00:50:47.351Z,83.25
2023-08-07T00:53:20.496Z,82.64
2023-08-07T00:55:52.947Z,82.81
2023-08-07T00:58:25.725Z,82.04
2023-08-07T01:00:58.340Z,84.54
2023-08-07T01:03:31.094Z,85.97
2023-08-07T01:06:03.691Z,88.36
2023-08-07T01:08:36.190Z,88.78
2023-08-07T01:11:26.385Z,89.24
2023-08-07T01:14:07.151Z,91.08
2023-08-07T01:16:44.656Z,90.83
2023-08-07T01:19:26.124Z,90.77
2023-08-07T01:22:09.779Z,91.32
2023-08-07T01:24:45.188Z,91.68
2023-08-07T01:27:32.565Z,91.38
2023-08-07T01:30:11.605Z,91.73
2023-08-07T01:32:50.343Z,92.74
2023-08-07T01:35:26.657Z,93.05
2023-08-07T01:38:01.141Z,92.95
2023-08-07T01:40:33.973Z,92.72
2023-08-07T01:43:06.691Z,92.39
2023-08-07T01:45:40.574Z,91.85
2023-08-07T01:48:13.891Z,91.73
2023-08-07T01:50:46.406Z,92.76
2023-08-07T01:53:18.606Z,92.17
2023-08-07T01:55:50.841Z,92.68
2023-08-07T01:58:23.409Z,92.36
2023-08-07T02:00:56.553Z,92.97
2023-08-07T02:03:29.135Z,93.88
2023-08-07T02:06:03.143Z,94.79
2023-08-07T02:08:35.462Z,94.61
2023-08-07T02:11:08.998Z,93.59
2023-08-07T02:13:43.149Z,93.92
2023-08-07T02:16:15.365Z,92.74
2023-08-07T02:18:47.598Z,92.54
2023-08-07T02:21:19.837Z,92.90
2023-08-07T02:23:52.346Z,93.01
2023-08-07T02:26:24.513Z,92.40
2023-08-07T02:28:56.721Z,93.30
2023-08-07T02:31:29.191Z,94.10
2023-08-07T02:34:01.610Z,93.17
2023-08-07T02:36:33.942Z,92.90
2023-08-07T02:39:09.007Z,93.21
2023-08-07T02:41:41.093Z,92.36
2023-08-07T02:44:13.140Z,90.21
2023-08-07T02:46:45.429Z,88.97
2023-08-07T02:49:17.650Z,89.78
2023-08-07T02:51:49.933Z,88.88
2023-08-07T02:54:22.645Z,88.46
2023-08-07T02:56:55.301Z,88.82
2023-08-07T02:59:27.752Z,88.10
2023-08-07T03:01:59.896Z,88.56
2023-08-07T03:04:32.303Z,88.34
2023-08-07T03:07:05.397Z,86.35
2023-08-07T03:09:38.476Z,88.81
2023-08-07T03:12:11.821Z,89.53
2023-08-07T03:14:44.072Z,89.22
2023-08-07T03:17:16.369Z,87.73
2023-08-07T03:19:48.740Z,87.89
2023-08-07T03:22:21.036Z,87.90
2023-08-07T03:24:53.242Z,88.47
2023-08-07T03:27:25.775Z,88.93
2023-08-07T03:29:57.810Z,87.86
2023-08-07T03:32:33.338Z,87.76
2023-08-07T03:35:06.525Z,87.99
2023-08-07T03:37:40.061Z,89.37
2023-08-07T03:40:15.183Z,89.91
2023-08-07T03:42:48.394Z,89.85
2023-08-07T03:45:20.806Z,89.44
2023-08-07T03:47:53.095Z,88.63
2023-08-07T03:50:26.190Z,88.54
2023-08-07T03:52:58.642Z,88.28
2023-08-07T03:55:31.032Z,88.08
2023-08-07T03:58:03.955Z,88.15
2023-08-07T04:00:36.293Z,88.35
2023-08-07T04:03:08.870Z,87.53
2023-08-07T04:05:41.679Z,87.30
2023-08-07T04:08:14.450Z,87.90
2023-08-07T04:10:46.680Z,87.79
2023-08-07T04:13:18.982Z,87.98
2023-08-07T04:15:52.778Z,89.03
2023-08-07T04:18:25.269Z,89.02
2023-08-07T04:20:58.500Z,89.16
2023-08-07T04:23:32.712Z,88.93
2023-08-07T04:26:05.418Z,88.66
2023-08-07T04:28:37.769Z,88.31
2023-08-07T04:31:10.407Z,88.30
2023-08-07T04:33:42.825Z,88.18
2023-08-07T04:36:15.103Z,87.97
2023-08-07T04:38:47.840Z,89.20
2023-08-07T04:41:20.194Z,88.67
2023-08-07T04:43:52.298Z,88.93
2023-08-07T04:46:24.743Z,89.89
2023-08-07T04:48:57.128Z,89.42
2023-08-07T04:51:31.643Z,89.55
2023-08-07T04:54:03.948Z,91.07
2023-08-07T04:56:36.364Z,91.83
2023-08-07T04:59:08.589Z,91.69
2023-08-07T05:01:40.744Z,92.96
2023-08-07T05:04:12.914Z,92.03
2023-08-07T05:06:45.373Z,92.15
2023-08-07T05:09:18.247Z,92.79
2023-08-07T05:11:50.692Z,93.14
2023-08-07T05:14:22.750Z,93.53
2023-08-07T05:16:55.363Z,93.19
2023-08-07T05:19:27.654Z,92.05
2023-08-07T05:22:00.174Z,91.26
2023-08-07T05:24:39.974Z,92.20
2023-08-07T05:27:13.181Z,92.22
2023-08-07T05:29:45.767Z,91.17
2023-08-07T05:32:18.598Z,90.03
2023-08-07T05:34:51.805Z,89.38
2023-08-07T05:37:24.338Z,88.14
2023-08-07T05:39:56.880Z,86.64
2023-08-07T05:42:29.362Z,84.66
2023-08-07T05:45:01.504Z,85.39
2023-08-07T05:47:34.659Z,84.67
2023-08-07T05:50:08.208Z,85.33
2023-08-07T05:52:40.524Z,85.42
2023-08-07T05:55:13.022Z,84.22
2023-08-07T05:57:45.344Z,83.70
2023-08-07T06:00:20.487Z,84.45
2023-08-07T06:02:53.147Z,83.12
2023-08-07T06:05:25.513Z,83.69
2023-08-07T06:07:58.169Z,85.17
2023-08-07T06:10:30.619Z,84.48
2023-08-07T06:13:03.088Z,82.60
2023-08-07T06:15:36.097Z,79.61
2023-08-07T06:18:08.569Z,77.85
2023-08-07T06:20:41.225Z,77.31
2023-08-07T06:23:13.488Z,77.14
2023-08-07T06:25:46.550Z,75.44
2023-08-07T06:28:18.988Z,75.59
2023-08-07T06:30:51.031Z,75.62
2023-08-07T06:33:23.447Z,75.08
2023-08-07T06:35:57.537Z,76.77
2023-08-07T06:38:30.206Z,77.25
2023-08-07T06:41:02.998Z,77.10
2023-08-07T06:43:35.237Z,76.04
2023-08-07T06:46:07.382Z,73.37
2023-08-07T06:48:39.926Z,73.62
2023-08-07T06:51:12.155Z,74.28
2023-08-07T06:53:44.567Z,73.94
2023-08-07T06:56:17.041Z,74.88
2023-08-07T06:58:49.594Z,74.61
2023-08-07T07:01:21.989Z,73.75
2023-08-07T07:03:54.593Z,72.94
2023-08-07T07:06:27.233Z,73.69
2023-08-07T07:08:59.582Z,73.11
2023-08-07T07:11:35.987Z,75.28
2023-08-07T07:14:08.586Z,76.16
2023-08-07T07:16:40.910Z,74.66
2023-08-07T07:19:13.253Z,76.66
2023-08-07T07:21:47.554Z,77.33
2023-08-07T07:24:20.496Z,77.88
2023-08-07T07:27:00.407Z,76.46
2023-08-07T07:29:33.223Z,76.33
2023-08-07T07:32:05.739Z,76.72
2023-08-07T07:34:38.071Z,76.98
2023-08-07T07:37:15.329Z,78.99
2023-08-07T07:39:47.643Z,78.86
2023-08-07T07:42:20.197Z,78.27
2023-08-07T07:44:53.066Z,78.27
2023-08-07T07:47:25.551Z,78.81
2023-08-07T07:50:09.905Z,78.16
2023-08-07T07:52:42.526Z,78.09
2023-08-07T07:55:15.239Z,76.86
2023-08-07T07:57:47.685Z,76.90
2023-08-07T08:00:20.617Z,76.87
2023-08-07T08:02:53.181Z,76.35
2023-08-07T08:05:26.201Z,76.19
2023-08-07T08:07:59.326Z,76.59
2023-08-07T08:10:31.756Z,75.99
2023-08-07T08:13:05.715Z,75.28
2023-08-07T08:15:38.137Z,74.57
2023-08-07T08:18:10.787Z,75.81
2023-08-07T08:20:45.027Z,75.81
2023-08-07T08:23:18.523Z,75.47
2023-08-07T08:25:52.046Z,76.14
2023-08-07T08:28:25.539Z,75.33
2023-08-07T08:30:58.258Z,74.87
2023-08-07T08:33:30.449Z,74.18
2023-08-07T08:36:03.135Z,73.25
2023-08-07T08:38:36.738Z,74.24
2023-08-07T08:41:11.727Z,74.20
2023-08-07T08:43:45.387Z,74.46
2023-08-07T08:46:20.614Z,72.97
2023-08-07T08:48:58.789Z,73.30
2023-08-07T08:51:32.267Z,74.16
2023-08-07T08:54:05.454Z,74.84
2023-08-07T08:56:38.570Z,74.95
2023-08-07T08:59:11.212Z,73.70
2023-08-07T09:01:44.121Z,72.93
2023-08-07T09:04:17.265Z,72.65
2023-08-07T09:06:50.366Z,71.50
2023-08-07T09:09:25.085Z,71.98
2023-08-07T09:11:57.252Z,71.66
2023-08-07T09:14:33.021Z,70.34
2023-08-07T09:17:05.752Z,70.39
2023-08-07T09:19:38.093Z,71.13
2023-08-07T09:22:10.932Z,70.29
2023-08-07T09:24:43.310Z,67.91
2023-08-07T09:27:16.243Z,68.87
2023-08-07T09:29:50.581Z,68.02
2023-08-07T09:32:25.082Z,68.93
2023-08-07T09:34:57.532Z,68.55
2023-08-07T09:37:30.159Z,69.45
2023-08-07T09:40:03.747Z,68.70
2023-08-07T09:42:39.165Z,68.68
2023-08-07T09:45:24.765Z,68.37
2023-08-07T09:48:04.843Z,67.87
2023-08-07T09:50:37.297Z,67.83
2023-08-07T09:53:11.740Z,66.94
2023-08-07T09:55:44.161Z,65.74
2023-08-07T09:58:18.455Z,65.30
2023-08-07T10:00:54.230Z,66.16
2023-08-07T10:03:27.341Z,66.74
2023-08-07T10:06:00.188Z,66.66
2023-08-07T10:08:34.341Z,65.85
2023-08-07T10:11:06.929Z,64.53
2023-08-07T10:13:40.573Z,63.82
2023-08-07T10:16:13.715Z,62.64
2023-08-07T10:18:47.460Z,62.34
2023-08-07T10:21:20.144Z,61.96
2023-08-07T10:23:56.005Z,62.29
2023-08-07T10:26:29.052Z,62.57
2023-08-07T10:29:04.293Z,62.94
2023-08-07T10:31:38.637Z,60.53
2023-08-07T10:34:10.937Z,61.70
2023-08-07T10:36:43.587Z,62.79
2023-08-07T10:39:17.713Z,62.40
2023-08-07T10:41:54.512Z,61.93
2023-08-07T10:44:29.042Z,61.50
2023-08-07T10:47:00.773Z,61.52
2023-08-07T10:49:37.801Z,61.42
2023-08-07T10:52:14.352Z,62.17
2023-08-07T10:54:50.328Z,63.19
2023-08-07T10:57:24.353Z,64.21
2023-08-07T11:00:09.108Z,64.17
2023-08-07T11:02:44.335Z,64.15
2023-08-07T11:05:16.986Z,62.34
2023-08-07T11:07:49.208Z,62.74
2023-08-07T11:10:21.602Z,63.49
2023-08-07T11:12:53.889Z,63.03
2023-08-07T11:15:26.396Z,62.01
2023-08-07T11:17:59.135Z,62.89
2023-08-07T11:20:31.451Z,63.40
2023-08-07T11:23:04.426Z,63.57
2023-08-07T11:25:36.918Z,62.71
2023-08-07T11:28:10.608Z,62.34
2023-08-07T11:30:42.891Z,61.77
2023-08-07T11:33:16.755Z,62.30
2023-08-07T11:35:49.656Z,61.76
2023-08-07T11:38:35.400Z,61.01
2023-08-07T11:41:09.455Z,60.86
2023-08-07T11:43:42.671Z,60.37
2023-08-07T11:46:15.730Z,61.16
2023-08-07T11:48:48.398Z,60.75
2023-08-07T11:51:22.176Z,59.50
2023-08-07T11:53:57.847Z,60.02
2023-08-07T11:56:30.369Z,58.39
2023-08-07T11:59:04.766Z,56.95
2023-08-07T12:01:42.182Z,54.28
2023-08-07T12:04:14.805Z,53.41
2023-08-07T12:06:58.965Z,53.68
2023-08-07T12:09:32.548Z,54.87
2023-08-07T12:12:06.502Z,55.44
2023-08-07T12:14:40.707Z,55.15
2023-08-07T12:17:14.847Z,55.63
2023-08-07T12:19:48.251Z,55.82
2023-08-07T12:22:23.348Z,56.01
2023-08-07T12:24:56.074Z,56.59
2023-08-07T12:27:28.303Z,56.48
2023-08-07T12:30:00.699Z,56.53
2023-08-07T12:32:33.243Z,57.10
2023-08-07T12:37:46.673Z,57.75
2023-08-07T12:42:57.456Z,61.16
2023-08-07T12:48:05.741Z,63.75
2023-08-07T12:50:38.704Z,65.22
2023-08-07T12:53:11.745Z,66.52
2023-08-07T12:55:43.990Z,67.21
2023-08-07T12:58:16.648Z,67.61
2023-08-07T13:00:48.917Z,68.31
2023-08-07T13:03:21.922Z,69.31
2023-08-07T13:05:54.441Z,70.85
2023-08-07T13:08:26.811Z,72.37
2023-08-07T13:10:59.132Z,75.01
2023-08-07T13:13:31.925Z,78.19
2023-08-07T13:16:04.385Z,78.81
2023-08-07T13:18:37.083Z,79.51
2023-08-07T13:21:10.373Z,80.92
2023-08-07T13:23:42.698Z,78.81
2023-08-07T13:26:15.132Z,79.27
2023-08-07T13:28:47.586Z,79.77
2023-08-07T13:31:19.966Z,80.02
2023-08-07T13:33:52.257Z,81.49
2023-08-07T13:36:24.442Z,83.52
2023-08-07T13:38:56.693Z,82.10
2023-08-07T13:41:28.890Z,83.27
2023-08-07T13:44:00.892Z,83.51
2023-08-07T13:46:33.568Z,82.69
2023-08-07T13:49:06.075Z,81.78
2023-08-07T13:51:39.248Z,79.51
2023-08-07T13:54:11.576Z,80.51
2023-08-07T13:56:44.054Z,79.58
2023-08-07T13:59:16.426Z,79.29
2023-08-07T14:01:49.196Z,79.08
2023-08-07T14:04:21.847Z,77.86
2023-08-07T14:06:54.366Z,77.23
2023-08-07T14:09:26.954Z,78.89
2023-08-07T14:11:59.463Z,79.96
2023-08-07T14:14:31.935Z,85.37
2023-08-07T14:17:04.245Z,87.18
2023-08-07T14:19:36.755Z,87.62
2023-08-07T14:22:09.417Z,86.62
2023-08-07T14:24:41.661Z,87.58
2023-08-07T14:27:13.868Z,87.90
2023-08-07T14:29:46.149Z,88.62
2023-08-07T14:32:18.516Z,87.93
2023-08-07T14:34:50.771Z,88.99
2023-08-07T14:37:23.082Z,87.95
2023-08-07T14:39:58.015Z,84.98
2023-08-07T14:42:30.318Z,84.36
2023-08-07T14:45:02.567Z,83.49
2023-08-07T14:47:34.935Z,84.30
2023-08-07T14:50:08.644Z,82.92
2023-08-07T14:52:41.741Z,83.05
2023-08-07T14:55:15.415Z,82.59
2023-08-07T14:57:48.504Z,83.51
2023-08-07T15:00:21.862Z,83.21
2023-08-07T15:02:54.220Z,82.27
2023-08-07T15:05:27.852Z,82.65
2023-08-07T15:08:02.565Z,81.34
2023-08-07T15:10:33.393Z,80.18
2023-08-07T15:13:06.024Z,78.47
2023-08-07T15:15:38.234Z,78.75
2023-08-07T15:18:10.553Z,76.70
2023-08-07T15:20:43.060Z,74.99
2023-08-07T15:23:15.984Z,73.27
2023-08-07T15:25:48.271Z,71.91
2023-08-07T15:28:20.749Z,71.61
2023-08-07T15:30:53.826Z,71.18
2023-08-07T15:33:26.224Z,71.10
2023-08-07T15:35:58.802Z,71.55
2023-08-07T15:38:31.273Z,72.39
2023-08-07T15:41:03.771Z,71.77
2023-08-07T15:43:36.736Z,71.40
2023-08-07T15:46:08.836Z,71.67
2023-08-07T15:48:41.089Z,72.70
2023-08-07T15:51:14.296Z,73.59
2023-08-07T15:53:47.226Z,73.12
2023-08-07T15:56:19.334Z,73.81
2023-08-07T15:58:52.472Z,73.40
2023-08-07T16:01:24.882Z,73.20
2023-08-07T16:03:59.535Z,73.38
2023-08-07T16:06:30.470Z,73.96
2023-08-07T16:09:02.810Z,74.40
2023-08-07T16:11:35.404Z,73.94
2023-08-07T16:14:07.968Z,73.76
2023-08-07T16:16:40.297Z,74.25
2023-08-07T16:19:12.966Z,74.20
2023-08-07T16:21:45.455Z,73.73
2023-08-07T16:24:18.477Z,75.00
2023-08-07T16:26:51.481Z,75.16
2023-08-07T16:29:23.928Z,75.38
2023-08-07T16:31:57.348Z,75.12
2023-08-07T16:34:30.017Z,75.44
2023-08-07T16:37:02.704Z,75.32
2023-08-07T16:39:35.022Z,75.84
2023-08-07T16:42:08.574Z,74.89
2023-08-07T16:44:40.810Z,75.39
2023-08-07T16:47:13.370Z,75.32
2023-08-07T16:49:46.704Z,76.46
2023-08-07T16:52:19.166Z,78.70
2023-08-07T16:54:54.500Z,81.92
2023-08-07T16:57:26.840Z,83.55
2023-08-07T16:59:59.070Z,81.76
2023-08-07T17:02:31.154Z,84.34
2023-08-07T17:05:03.623Z,84.81
2023-08-07T17:07:36.315Z,86.52
2023-08-07T17:10:14.186Z,87.70
2023-08-07T17:12:46.770Z,87.95
2023-08-07T17:15:19.382Z,88.38
2023-08-07T17:17:51.765Z,88.77
2023-08-07T17:20:24.135Z,88.80
2023-08-07T17:22:56.750Z,88.17
2023-08-07T17:25:29.270Z,88.19
2023-08-07T17:28:01.747Z,88.36
2023-08-07T17:30:35.217Z,89.18
2023-08-07T17:33:08.239Z,88.59
2023-08-07T17:35:42.399Z,89.76
2023-08-07T17:38:14.900Z,89.45
2023-08-07T17:40:48.315Z,88.51
2023-08-07T17:43:21.572Z,87.00
2023-08-07T17:45:53.989Z,87.20
2023-08-07T17:48:26.209Z,87.58
2023-08-07T17:50:59.036Z,88.36
2023-08-07T17:53:31.857Z,88.68
2023-08-07T17:56:04.737Z,89.10
2023-08-07T17:58:38.282Z,88.94
2023-08-07T18:01:10.780Z,88.72
2023-08-07T18:03:43.314Z,88.52
2023-08-07T18:06:16.244Z,87.62
2023-08-07T18:08:48.536Z,87.60
2023-08-07T18:11:20.961Z,87.47
2023-08-07T18:13:53.348Z,88.11
2023-08-07T18:16:26.433Z,88.08
2023-08-07T18:18:59.229Z,87.76
2023-08-07T18:21:31.523Z,87.41
2023-08-07T18:24:04.681Z,87.30
2023-08-07T18:26:37.234Z,86.82
2023-08-07T18:29:09.604Z,86.26
2023-08-07T18:31:42.044Z,84.87
2023-08-07T18:34:14.185Z,85.32
2023-08-07T18:36:47.730Z,84.29
2023-08-07T18:39:21.601Z,84.25
2023-08-07T18:41:54.393Z,84.02
2023-08-07T18:44:27.476Z,84.51
2023-08-07T18:46:59.952Z,84.42
2023-08-07T18:49:33.271Z,83.55
2023-08-07T18:52:06.805Z,83.10
2023-08-07T18:54:41.071Z,83.10
2023-08-07T18:57:16.441Z,82.85
2023-08-07T18:59:48.693Z,84.39
2023-08-07T19:02:21.196Z,84.05
2023-08-07T19:04:53.327Z,84.51
2023-08-07T19:07:25.955Z,83.21
2023-08-07T19:09:58.435Z,81.09
2023-08-07T19:12:32.028Z,77.16
2023-08-07T19:15:05.707Z,73.74
2023-08-07T19:17:39.075Z,73.44
2023-08-07T19:20:13.759Z,73.13
2023-08-07T19:22:46.148Z,72.46
2023-08-07T19:25:18.659Z,72.43
2023-08-07T19:27:52.245Z,71.85
2023-08-07T19:30:25.085Z,71.10
2023-08-07T19:32:57.230Z,71.94
2023-08-07T19:35:30.016Z,71.65
2023-08-07T19:38:02.712Z,71.85
2023-08-07T19:40:35.097Z,71.58
2023-08-07T19:43:07.495Z,70.84
2023-08-07T19:45:39.848Z,70.99
2023-08-07T19:48:12.599Z,69.81
2023-08-07T19:50:44.889Z,69.38
2023-08-07T19:53:17.278Z,69.04
2023-08-07T19:55:50.662Z,68.74
2023-08-07T19:58:23.061Z,69.43
2023-08-07T20:00:55.415Z,69.51
2023-08-07T20:03:28.268Z,70.07
2023-08-07T20:06:01.476Z,70.07
2023-08-07T20:08:33.816Z,70.15
2023-08-07T20:11:06.928Z,70.61
2023-08-07T20:13:39.176Z,70.70
2023-08-07T20:16:11.682Z,70.97
2023-08-07T20:18:44.202Z,71.69
2023-08-07T20:21:17.749Z,72.73
2023-08-07T20:23:50.247Z,73.41
2023-08-07T20:26:25.114Z,73.22
2023-08-07T20:28:58.681Z,73.27
2023-08-07T20:31:30.987Z,73.53
2023-08-07T20:34:03.270Z,74.98
2023-08-07T20:36:35.367Z,76.48
2023-08-07T20:39:07.972Z,77.53
2023-08-07T20:41:40.123Z,78.91
2023-08-07T20:44:12.249Z,79.10
2023-08-07T20:46:44.450Z,78.17
2023-08-07T20:49:16.781Z,78.19
2023-08-07T20:51:49.490Z,79.03
2023-08-07T20:54:21.848Z,79.54
2023-08-07T20:56:54.704Z,78.74
2023-08-07T20:59:27.252Z,77.75
2023-08-07T21:01:59.814Z,75.95
2023-08-07T21:04:32.418Z,73.48
2023-08-07T21:07:06.409Z,70.42
2023-08-07T21:09:38.686Z,68.40
2023-08-07T21:12:11.945Z,68.29
2023-08-07T21:14:46.089Z,66.30
2023-08-07T21:17:18.607Z,65.67
2023-08-07T21:19:51.764Z,66.18
2023-08-07T21:22:24.418Z,67.03
2023-08-07T21:24:57.397Z,68.96
2023-08-07T21:27:29.821Z,69.12
2023-08-07T21:30:03.308Z,70.08
2023-08-07T21:32:35.921Z,70.17
2023-08-07T21:35:09.882Z,69.85
2023-08-07T21:37:44.614Z,69.41
2023-08-07T21:40:17.424Z,66.78
2023-08-07T21:42:49.993Z,65.85
2023-08-07T21:45:22.437Z,64.40
2023-08-07T21:47:54.705Z,65.22
2023-08-07T21:50:27.281Z,66.48
2023-08-07T21:52:59.484Z,67.16
2023-08-07T21:55:32.380Z,68.49
2023-08-07T21:58:05.029Z,68.37
2023-08-07T22:00:37.762Z,68.16
2023-08-07T22:03:11.602Z,68.21
2023-08-07T22:05:43.899Z,69.03
2023-08-07T22:08:16.222Z,70.05
2023-08-07T22:10:48.704Z,70.48
2023-08-07T22:13:21.300Z,70.63
2023-08-07T22:15:54.077Z,71.13
2023-08-07T22:18:27.015Z,71.79
2023-08-07T22:20:59.457Z,71.80
2023-08-07T22:23:32.703Z,73.68
2023-08-07T22:26:04.915Z,74.13
2023-08-07T22:28:37.596Z,74.94
2023-08-07T22:31:10.162Z,75.36
2023-08-07T22:33:42.738Z,75.10
2023-08-07T22:36:16.195Z,74.90
2023-08-07T22:38:48.535Z,75.52
2023-08-07T22:41:21.665Z,74.86
2023-08-07T22:43:53.809Z,74.96
2023-08-07T22:46:26.089Z,75.15
2023-08-07T22:48:58.370Z,74.81
2023-08-07T22:51:30.819Z,74.88
2023-08-07T22:54:02.985Z,74.90
2023-08-07T22:56:35.158Z,74.96
2023-08-07T22:59:07.562Z,73.74
2023-08-07T23:01:40.195Z,73.61
2023-08-07T23:04:12.425Z,73.22
2023-08-07T23:06:44.448Z,71.76
2023-08-07T23:09:16.510Z,71.21
2023-08-07T23:11:48.901Z,69.77
2023-08-07T23:14:21.234Z,68.36
2023-08-07T23:16:53.327Z,68.64
2023-08-07T23:19:25.736Z,67.97
2023-08-07T23:21:58.399Z,67.62
2023-08-07T23:24:30.535Z,67.54
2023-08-07T23:27:02.698Z,67.02
2023-08-07T23:29:35.867Z,67.18
2023-08-07T23:32:09.435Z,68.41
2023-08-07T23:34:41.799Z,68.60
2023-08-07T23:37:14.489Z,69.16
2023-08-07T23:39:46.942Z,69.48
2023-08-07T23:42:19.105Z,69.59
2023-08-07T23:44:52.116Z,69.87
2023-08-07T23:47:24.292Z,70.68
2023-08-07T23:49:56.700Z,71.43
2023-08-07T23:52:29.058Z,71.96
2023-08-07T23:55:01.516Z,72.31
2023-08-07T23:57:33.780Z,72.10
